Time;durP1;ratioP1;P1;durP2;ratioP2;P2;SDS_P1;SDS_P2;PMS_P1;PMS_P2;Temp;Humidity;BMP_temperature;BMP_pressure;BME280_temperature;BME280_humidity;BME280_pressure;Samples;Min_cycle;Max_cycle;Signal;HPM_P1;HPM_P2
2021/05/25 00:01:46;;;;;;;9.13;2.03;;;18.60;80.70;;;;;;5062402;28;20024;-72
2021/05/25 00:04:12;;;;;;;7.18;1.90;;;18.60;80.70;;;;;;5056948;28;20457;-73
2021/05/25 00:06:39;;;;;;;6.40;2.00;;;18.60;80.70;;;;;;5064865;28;20028;-73
2021/05/25 00:09:06;;;;;;;5.13;1.60;;;18.60;80.70;;;;;;5062363;28;20090;-72
2021/05/25 00:11:32;;;;;;;4.05;1.95;;;18.60;80.70;;;;;;5064989;28;20024;-72
2021/05/25 00:13:59;;;;;;;5.25;1.73;;;18.60;80.60;;;;;;5062323;28;20082;-71
2021/05/25 00:16:26;;;;;;;4.93;1.85;;;18.60;80.50;;;;;;5066742;28;20107;-71
2021/05/25 00:18:52;;;;;;;6.90;2.80;;;18.70;80.50;;;;;;5062710;28;20025;-70
2021/05/25 00:21:19;;;;;;;5.85;1.85;;;18.70;80.40;;;;;;5060622;28;20435;-74
2021/05/25 00:23:45;;;;;;;4.78;2.00;;;18.70;80.40;;;;;;5062091;28;20082;-73
2021/05/25 00:26:12;;;;;;;6.65;1.52;;;18.60;80.30;;;;;;5063187;28;20415;-73
2021/05/25 00:28:39;;;;;;;6.25;1.80;;;18.60;80.30;;;;;;5060145;28;20383;-73
2021/05/25 00:31:05;;;;;;;8.95;2.08;;;18.60;80.30;;;;;;5068525;28;20077;-73
2021/05/25 00:33:32;;;;;;;7.15;1.85;;;18.60;80.30;;;;;;5046518;28;20387;-71
2021/05/25 00:35:59;;;;;;;11.23;3.58;;;18.60;80.20;;;;;;5066035;28;20431;-74
2021/05/25 00:38:26;;;;;;;10.90;2.63;;;18.60;80.10;;;;;;5071082;28;20025;-72
2021/05/25 00:40:52;;;;;;;5.82;2.17;;;18.60;80.10;;;;;;5070926;28;20039;-74
2021/05/25 00:43:21;;;;;;;8.13;2.03;;;18.60;80.10;;;;;;5070236;28;20028;-74
2021/05/25 00:45:47;;;;;;;4.18;1.55;;;18.60;80.20;;;;;;5068862;28;20070;-74
2021/05/25 00:48:14;;;;;;;10.35;3.20;;;18.60;80.10;;;;;;5070086;28;20021;-73
2021/05/25 00:50:40;;;;;;;8.52;1.95;;;18.60;80.10;;;;;;5061688;28;20037;-69
2021/05/25 00:53:07;;;;;;;10.93;2.20;;;18.60;80.20;;;;;;5060989;28;20476;-69
2021/05/25 00:55:37;;;;;;;13.05;3.70;;;18.60;80.30;;;;;;5067054;28;20078;-72
2021/05/25 00:58:06;;;;;;;7.95;2.08;;;18.60;80.50;;;;;;5064069;28;20458;-72
2021/05/25 01:00:41;;;;;;;11.27;2.75;;;18.60;80.60;;;;;;5070797;28;20178;-72
2021/05/25 01:03:09;;;;;;;9.85;2.72;;;18.60;80.80;;;;;;5068595;28;20032;-72
2021/05/25 01:05:36;;;;;;;12.77;2.85;;;18.60;80.90;;;;;;5068547;28;20445;-69
2021/05/25 01:08:04;;;;;;;9.38;1.92;;;18.60;81.10;;;;;;5066616;28;20477;-70
2021/05/25 01:10:34;;;;;;;14.25;2.60;;;18.60;81.30;;;;;;5069122;28;20087;-72
2021/05/25 01:13:06;;;;;;;12.68;2.95;;;18.60;81.60;;;;;;5059005;28;20037;-71
2021/05/25 01:15:33;;;;;;;7.25;2.40;;;18.60;81.70;;;;;;5051151;28;20020;-73
2021/05/25 01:18:01;;;;;;;5.82;1.80;;;18.60;81.90;;;;;;5067103;28;20073;-74
2021/05/25 01:20:30;;;;;;;6.90;1.95;;;18.60;82.00;;;;;;5068165;28;20016;-75
2021/05/25 01:22:57;;;;;;;15.73;2.22;;;18.60;82.20;;;;;;5071101;28;20455;-71
2021/05/25 01:25:25;;;;;;;8.55;1.90;;;18.60;82.30;;;;;;5066458;28;20389;-75
2021/05/25 01:27:55;;;;;;;10.00;2.75;;;18.60;82.60;;;;;;5070629;28;20486;-73
2021/05/25 01:30:24;;;;;;;8.63;2.08;;;18.50;82.60;;;;;;5062282;28;20029;-75
2021/05/25 01:32:51;;;;;;;8.15;2.55;;;18.50;82.70;;;;;;5064255;28;20012;-71
2021/05/25 01:35:18;;;;;;;10.43;2.08;;;18.50;82.90;;;;;;5065152;28;20151;-71
2021/05/25 01:37:45;;;;;;;14.20;2.80;;;18.50;82.90;;;;;;5067133;28;20530;-74
2021/05/25 01:40:12;;;;;;;9.43;2.22;;;18.50;82.90;;;;;;5062527;28;20080;-70
2021/05/25 01:42:39;;;;;;;15.18;2.20;;;18.50;83.00;;;;;;5065980;28;20067;-75
2021/05/25 01:45:16;;;;;;;8.82;1.92;;;18.50;83.00;;;;;;5057283;28;20004;-72
2021/05/25 01:47:43;;;;;;;10.60;2.58;;;18.50;83.20;;;;;;5065163;28;20021;-70
2021/05/25 01:50:13;;;;;;;8.32;2.28;;;18.50;83.30;;;;;;5065306;28;20080;-72
2021/05/25 01:53:07;;;;;;;12.38;2.00;;;18.50;83.40;;;;;;5066668;28;20472;-71
2021/05/25 01:55:44;;;;;;;6.57;2.20;;;18.50;83.50;;;;;;5064929;28;20021;-69
2021/05/25 01:58:19;;;;;;;9.00;2.90;;;18.50;83.60;;;;;;5063318;28;20024;-73
2021/05/25 02:00:57;;;;;;;7.53;1.83;;;18.50;83.80;;;;;;5066051;28;20059;-69
2021/05/25 02:03:24;;;;;;;7.72;2.60;;;18.50;83.80;;;;;;5058793;28;20423;-72
2021/05/25 02:05:51;;;;;;;4.82;1.35;;;18.50;83.80;;;;;;5066650;28;20027;-72
2021/05/25 02:08:19;;;;;;;8.70;2.05;;;18.50;83.90;;;;;;5064862;28;20544;-75
2021/05/25 02:10:47;;;;;;;9.25;2.05;;;18.50;84.00;;;;;;5068110;28;20506;-74
2021/05/25 02:13:22;;;;;;;8.20;2.47;;;18.50;84.00;;;;;;5067866;28;20020;-75
2021/05/25 02:15:51;;;;;;;11.60;3.17;;;18.50;84.00;;;;;;5062571;28;20026;-71
2021/05/25 02:18:21;;;;;;;9.82;2.05;;;18.50;84.00;;;;;;5064477;28;20021;-69
2021/05/25 02:20:51;;;;;;;8.93;2.20;;;18.50;84.10;;;;;;5059645;28;20029;-70
2021/05/25 02:23:18;;;;;;;13.35;2.45;;;18.50;84.10;;;;;;5062319;28;20079;-71
2021/05/25 02:25:45;;;;;;;9.88;2.17;;;18.50;84.10;;;;;;5063683;28;20072;-72
2021/05/25 02:28:12;;;;;;;7.55;2.35;;;18.50;84.20;;;;;;5060434;28;20029;-69
2021/05/25 02:30:40;;;;;;;7.20;2.10;;;18.50;84.30;;;;;;5051908;28;20075;-71
2021/05/25 02:33:11;;;;;;;10.77;2.60;;;18.50;84.40;;;;;;5061287;28;20032;-69
2021/05/25 02:35:40;;;;;;;15.00;3.38;;;18.50;84.50;;;;;;5063513;28;20440;-71
2021/05/25 02:38:08;;;;;;;8.45;2.05;;;18.50;84.60;;;;;;5063724;28;20466;-70
2021/05/25 02:40:35;;;;;;;8.35;2.03;;;18.50;84.60;;;;;;5064834;28;20027;-69
2021/05/25 02:43:03;;;;;;;8.77;1.83;;;18.50;84.70;;;;;;5058332;28;20071;-68
2021/05/25 02:45:31;;;;;;;7.50;1.77;;;18.50;84.70;;;;;;5067071;28;20028;-71
2021/05/25 02:47:58;;;;;;;10.93;3.80;;;18.50;84.70;;;;;;5067791;28;20024;-71
2021/05/25 02:50:25;;;;;;;13.00;2.00;;;18.50;84.80;;;;;;5064007;28;20037;-69
2021/05/25 02:52:52;;;;;;;11.07;2.95;;;18.50;84.90;;;;;;5065887;28;20017;-71
2021/05/25 02:55:27;;;;;;;6.43;2.08;;;18.50;85.00;;;;;;5063385;28;20028;-70
2021/05/25 02:57:55;;;;;;;8.40;1.88;;;18.50;85.00;;;;;;5059424;28;20017;-69
2021/05/25 03:00:24;;;;;;;11.95;2.67;;;18.50;85.10;;;;;;5066929;28;20421;-69
2021/05/25 03:02:51;;;;;;;7.40;2.33;;;18.50;85.10;;;;;;5060967;28;20016;-68
2021/05/25 03:05:19;;;;;;;10.15;2.97;;;18.50;85.10;;;;;;5067411;28;20017;-71
2021/05/25 03:07:46;;;;;;;8.85;2.63;;;18.50;85.20;;;;;;5061911;28;20012;-71
2021/05/25 03:10:16;;;;;;;6.60;1.83;;;18.50;85.30;;;;;;5061707;28;20040;-71
2021/05/25 03:12:44;;;;;;;8.98;2.17;;;18.50;85.30;;;;;;5062171;28;20023;-71
2021/05/25 03:15:13;;;;;;;7.50;2.42;;;18.50;85.30;;;;;;5068595;28;20029;-72
2021/05/25 03:17:40;;;;;;;9.18;3.20;;;18.50;85.40;;;;;;5060802;28;20013;-75
2021/05/25 03:20:08;;;;;;;12.20;3.03;;;18.50;85.40;;;;;;5062197;28;20032;-70
2021/05/25 03:22:35;;;;;;;12.82;3.05;;;18.50;85.50;;;;;;5066690;28;20017;-72
2021/05/25 03:25:01;;;;;;;9.25;2.65;;;18.50;85.50;;;;;;5067047;28;20063;-69
2021/05/25 03:27:28;;;;;;;6.93;2.58;;;18.50;85.50;;;;;;5067365;28;20024;-68
2021/05/25 03:29:54;;;;;;;11.93;2.50;;;18.40;85.50;;;;;;5062404;28;20017;-69
2021/05/25 03:32:21;;;;;;;8.32;3.47;;;18.50;85.60;;;;;;5063124;28;20024;-69
2021/05/25 03:34:48;;;;;;;12.43;3.97;;;18.40;85.50;;;;;;5062868;28;20013;-69
2021/05/25 03:37:14;;;;;;;12.13;3.67;;;18.40;85.50;;;;;;5066285;28;20628;-69
2021/05/25 03:39:41;;;;;;;9.50;4.07;;;18.40;85.50;;;;;;5063200;28;20102;-70
2021/05/25 03:42:07;;;;;;;14.35;5.13;;;18.40;85.50;;;;;;5067024;28;20025;-68
2021/05/25 03:44:34;;;;;;;12.90;5.57;;;18.40;85.60;;;;;;5065421;28;20091;-68
2021/05/25 03:47:00;;;;;;;13.88;6.80;;;18.40;85.60;;;;;;5065744;28;20058;-68
2021/05/25 03:49:27;;;;;;;12.88;5.25;;;18.40;85.70;;;;;;5068425;28;20032;-69
2021/05/25 03:51:53;;;;;;;12.73;7.03;;;18.40;85.70;;;;;;5061973;28;20733;-69
2021/05/25 03:54:25;;;;;;;20.25;7.82;;;18.40;85.70;;;;;;5065363;28;20107;-68
2021/05/25 03:59:18;;;;;;;13.02;6.03;;;18.40;85.70;;;;;;5067473;28;20020;-73
2021/05/25 04:01:44;;;;;;;13.27;5.53;;;18.40;85.80;;;;;;5071050;28;20017;-69
2021/05/25 04:04:11;;;;;;;12.77;4.90;;;18.40;85.80;;;;;;5071372;28;20094;-72
2021/05/25 04:06:39;;;;;;;12.15;4.38;;;18.40;85.80;;;;;;5072234;28;20008;-71
2021/05/25 04:09:08;;;;;;;10.57;4.75;;;18.40;85.80;;;;;;5065515;28;20103;-69
2021/05/25 04:11:34;;;;;;;12.68;4.47;;;18.40;85.80;;;;;;5066489;28;20522;-69
2021/05/25 04:14:02;;;;;;;10.15;5.20;;;18.40;85.80;;;;;;5068683;28;20078;-69
2021/05/25 04:16:29;;;;;;;12.07;4.82;;;18.40;85.90;;;;;;5062719;28;20012;-70
2021/05/25 04:18:55;;;;;;;16.45;6.82;;;18.40;85.90;;;;;;5068315;28;20044;-66
2021/05/25 04:21:24;;;;;;;24.42;14.27;;;18.40;85.90;;;;;;5064839;28;20021;-67
2021/05/25 04:23:51;;;;;;;22.63;11.93;;;18.40;86.00;;;;;;5070002;28;20020;-66
2021/05/25 04:26:18;;;;;;;15.32;8.43;;;18.40;86.10;;;;;;5064927;28;20013;-68
2021/05/25 04:29:24;;;;;;;13.32;6.75;;;18.40;86.30;;;;;;5070520;28;20040;-68
2021/05/25 04:32:30;;;;;;;17.55;6.53;;;18.40;86.60;;;;;;5063394;28;20067;-71
2021/05/25 04:35:36;;;;;;;11.40;5.28;;;18.40;86.70;;;;;;5064007;28;20074;-71
2021/05/25 04:38:42;;;;;;;21.20;8.82;;;18.40;86.60;;;;;;5060026;28;20025;-69
2021/05/25 04:41:10;;;;;;;22.48;9.90;;;18.40;86.50;;;;;;5062585;28;20033;-70
2021/05/25 04:43:39;;;;;;;16.17;9.52;;;18.40;86.50;;;;;;5061730;28;20480;-71
2021/05/25 04:46:07;;;;;;;18.98;9.43;;;18.40;86.50;;;;;;5062198;28;20021;-70
2021/05/25 04:48:33;;;;;;;17.25;7.15;;;18.40;86.50;;;;;;5061448;28;20035;-74
2021/05/25 04:51:00;;;;;;;13.27;7.57;;;18.40;86.50;;;;;;5064631;28;20121;-75
2021/05/25 04:53:27;;;;;;;12.65;6.20;;;18.40;86.50;;;;;;5062325;28;20388;-72
2021/05/25 04:55:53;;;;;;;10.10;5.47;;;18.40;86.50;;;;;;5058712;28;20021;-72
2021/05/25 04:58:20;;;;;;;13.90;5.85;;;18.40;86.50;;;;;;5061521;28;20040;-68
2021/05/25 05:00:46;;;;;;;16.05;5.22;;;18.40;86.50;;;;;;5059707;28;20510;-69
2021/05/25 05:03:13;;;;;;;14.27;6.03;;;18.40;86.50;;;;;;5058312;28;20099;-71
2021/05/25 05:05:39;;;;;;;16.65;5.25;;;18.30;86.50;;;;;;5056252;28;20082;-67
2021/05/25 05:08:07;;;;;;;8.93;3.97;;;18.40;86.50;;;;;;5061760;28;20468;-67
2021/05/25 05:10:34;;;;;;;11.27;4.28;;;18.40;86.50;;;;;;5060425;28;20111;-69
2021/05/25 05:13:02;;;;;;;13.88;4.13;;;18.40;86.50;;;;;;5058159;28;20013;-69
2021/05/25 05:15:30;;;;;;;11.27;5.50;;;18.40;86.50;;;;;;5060704;28;20017;-68
2021/05/25 05:17:56;;;;;;;14.15;5.18;;;18.40;86.50;;;;;;5059617;28;20058;-67
2021/05/25 05:20:23;;;;;;;16.27;5.88;;;18.40;86.50;;;;;;5061205;28;20020;-68
2021/05/25 05:22:49;;;;;;;17.95;5.55;;;18.30;86.40;;;;;;5054312;28;20020;-68
2021/05/25 05:25:16;;;;;;;14.90;5.57;;;18.30;86.50;;;;;;5059371;28;20045;-68
2021/05/25 05:27:42;;;;;;;12.85;4.78;;;18.30;86.60;;;;;;5057209;28;20017;-68
2021/05/25 05:30:10;;;;;;;15.38;4.35;;;18.30;86.60;;;;;;5059427;28;20488;-68
2021/05/25 05:32:36;;;;;;;14.85;5.32;;;18.30;86.60;;;;;;5068513;28;20091;-67
2021/05/25 05:35:05;;;;;;;14.52;5.22;;;18.30;86.70;;;;;;5065290;28;20021;-68
2021/05/25 05:37:31;;;;;;;15.90;5.63;;;18.30;86.80;;;;;;5069879;28;20047;-70
2021/05/25 05:39:58;;;;;;;17.63;5.50;;;18.30;86.80;;;;;;5064710;28;20530;-67
2021/05/25 05:42:24;;;;;;;17.05;6.85;;;18.30;86.90;;;;;;5069659;28;20024;-67
2021/05/25 05:44:51;;;;;;;18.83;6.80;;;18.30;86.90;;;;;;5066531;28;20472;-67
2021/05/25 05:47:17;;;;;;;12.52;6.53;;;18.30;87.00;;;;;;5065225;28;20035;-67
2021/05/25 05:49:43;;;;;;;13.40;7.07;;;18.40;87.10;;;;;;5065984;28;20058;-68
2021/05/25 05:52:10;;;;;;;14.38;6.22;;;18.30;87.10;;;;;;5067577;28;20021;-70
2021/05/25 05:54:36;;;;;;;15.43;6.20;;;18.30;87.10;;;;;;5068732;28;20019;-68
2021/05/25 05:57:03;;;;;;;16.98;6.95;;;18.40;87.20;;;;;;5067151;28;20021;-68
2021/05/25 05:59:30;;;;;;;15.13;6.85;;;18.30;87.20;;;;;;5069871;28;20025;-67
2021/05/25 06:01:56;;;;;;;18.52;7.00;;;18.30;87.30;;;;;;5064121;28;20009;-67
2021/05/25 06:04:23;;;;;;;20.52;7.20;;;18.30;87.30;;;;;;5063012;28;20048;-69
2021/05/25 06:06:49;;;;;;;16.63;6.40;;;18.30;87.30;;;;;;5067105;28;20357;-70
2021/05/25 06:09:16;;;;;;;16.13;6.40;;;18.30;87.30;;;;;;5064487;28;20407;-69
2021/05/25 06:11:44;;;;;;;15.82;6.53;;;18.30;87.40;;;;;;5068000;28;20528;-68
2021/05/25 06:14:11;;;;;;;21.23;7.55;;;18.30;87.40;;;;;;5068176;28;20108;-69
2021/05/25 06:16:37;;;;;;;12.07;5.93;;;18.30;87.50;;;;;;5063591;28;20961;-68
2021/05/25 06:19:04;;;;;;;15.75;5.93;;;18.30;87.60;;;;;;5061801;28;20009;-69
2021/05/25 06:21:30;;;;;;;20.98;6.15;;;18.30;87.70;;;;;;5067843;28;20082;-69
2021/05/25 06:23:57;;;;;;;13.43;6.55;;;18.30;87.80;;;;;;5065865;28;20036;-70
2021/05/25 06:26:23;;;;;;;16.92;6.45;;;18.30;87.80;;;;;;5067263;28;20096;-70
2021/05/25 06:28:50;;;;;;;21.52;7.88;;;18.40;88.00;;;;;;5067139;28;20059;-69
2021/05/25 06:31:16;;;;;;;16.83;7.57;;;18.30;88.00;;;;;;5064350;28;20032;-68
2021/05/25 06:33:43;;;;;;;13.05;6.53;;;18.30;88.10;;;;;;5065121;28;20020;-68
2021/05/25 06:36:09;;;;;;;11.90;6.30;;;18.40;88.20;;;;;;5066178;28;20103;-70
2021/05/25 06:38:36;;;;;;;13.65;6.53;;;18.30;88.20;;;;;;5069701;28;20024;-69
2021/05/25 06:41:02;;;;;;;14.38;6.32;;;18.30;88.30;;;;;;5065920;28;20475;-70
2021/05/25 06:43:29;;;;;;;15.35;6.55;;;18.30;88.30;;;;;;5064960;28;20024;-70
2021/05/25 06:45:55;;;;;;;16.33;6.63;;;18.30;88.30;;;;;;5068653;28;20028;-70
2021/05/25 06:48:22;;;;;;;14.65;8.45;;;18.30;88.30;;;;;;5066573;28;20032;-70
2021/05/25 06:50:48;;;;;;;16.77;7.90;;;18.30;89.00;;;;;;5068654;28;20146;-70
2021/05/25 06:53:16;;;;;;;15.73;8.57;;;18.30;88.50;;;;;;5065803;28;20020;-70
2021/05/25 06:55:43;;;;;;;14.65;6.78;;;18.30;88.50;;;;;;5063131;28;20028;-69
2021/05/25 06:58:10;;;;;;;17.45;6.80;;;18.30;88.60;;;;;;5065731;28;20013;-68
2021/05/25 07:00:37;;;;;;;12.50;5.82;;;18.30;88.70;;;;;;5065266;28;20048;-69
2021/05/25 07:03:03;;;;;;;11.35;6.30;;;18.30;88.70;;;;;;5062202;28;20024;-70
2021/05/25 07:05:31;;;;;;;12.27;4.97;;;18.30;88.70;;;;;;5066479;28;20043;-70
2021/05/25 07:07:57;;;;;;;9.13;5.30;;;18.30;88.80;;;;;;5067457;28;20020;-68
2021/05/25 07:10:23;;;;;;;9.20;4.68;;;18.30;88.80;;;;;;5063801;28;20038;-68
2021/05/25 07:12:50;;;;;;;8.20;4.82;;;18.30;88.90;;;;;;5050361;28;20410;-68
2021/05/25 07:15:17;;;;;;;11.55;4.13;;;18.30;88.90;;;;;;5067533;28;20026;-68
2021/05/25 07:17:48;;;;;;;10.15;4.53;;;18.40;89.00;;;;;;5061556;28;20013;-69
2021/05/25 07:20:14;;;;;;;6.18;3.75;;;18.40;89.00;;;;;;5067753;28;20020;-68
2021/05/25 07:22:41;;;;;;;5.05;3.33;;;18.40;89.00;;;;;;5065813;28;20016;-67
2021/05/25 07:25:08;;;;;;;6.93;3.85;;;18.40;89.10;;;;;;5065534;28;20037;-67
2021/05/25 07:27:36;;;;;;;8.38;3.47;;;18.40;89.70;;;;;;5065780;28;20095;-68
2021/05/25 07:30:03;;;;;;;9.05;4.63;;;18.40;89.10;;;;;;5065775;28;20560;-67
2021/05/25 07:32:29;;;;;;;9.05;4.90;;;18.40;89.10;;;;;;5066019;28;20016;-68
2021/05/25 07:34:56;;;;;;;7.65;4.68;;;18.40;89.80;;;;;;5063477;28;20107;-67
2021/05/25 07:37:22;;;;;;;8.65;5.03;;;18.40;89.20;;;;;;5063276;28;20020;-68
2021/05/25 07:39:48;;;;;;;6.00;5.40;;;18.50;89.30;;;;;;5064264;28;20029;-67
2021/05/25 07:42:15;;;;;;;10.95;5.85;;;18.40;89.30;;;;;;5064071;28;20103;-67
2021/05/25 07:44:41;;;;;;;11.40;5.35;;;18.40;89.30;;;;;;5061736;28;20015;-68
2021/05/25 07:47:08;;;;;;;9.50;5.35;;;18.50;89.40;;;;;;5067554;28;20024;-69
2021/05/25 07:49:35;;;;;;;8.80;4.70;;;18.50;89.50;;;;;;5065115;28;20422;-67
2021/05/25 07:52:02;;;;;;;12.05;5.03;;;18.50;89.50;;;;;;5064667;28;20416;-68
2021/05/25 07:54:29;;;;;;;7.97;4.38;;;18.50;89.70;;;;;;5067475;28;20020;-67
2021/05/25 07:56:55;;;;;;;6.60;4.57;;;18.50;89.70;;;;;;5064934;28;20032;-68
2021/05/25 07:59:22;;;;;;;8.50;4.30;;;18.50;89.70;;;;;;5067423;28;20027;-68
2021/05/25 08:01:48;;;;;;;9.00;4.13;;;18.50;89.70;;;;;;5065591;28;20070;-68
2021/05/25 08:04:15;;;;;;;6.85;3.78;;;18.50;89.60;;;;;;5064996;28;20475;-69
2021/05/25 08:06:41;;;;;;;8.93;4.13;;;18.50;89.60;;;;;;5065033;28;20016;-67
2021/05/25 08:09:08;;;;;;;7.85;3.53;;;18.50;89.60;;;;;;5065523;28;20493;-68
2021/05/25 08:11:34;;;;;;;8.98;3.80;;;18.50;89.60;;;;;;5064582;28;20028;-68
2021/05/25 08:14:04;;;;;;;8.50;3.92;;;18.60;89.60;;;;;;5066185;28;20017;-67
2021/05/25 08:16:33;;;;;;;8.23;3.00;;;18.60;89.60;;;;;;5066963;28;20024;-68
2021/05/25 08:19:47;;;;;;;9.68;3.80;;;18.60;89.50;;;;;;5065677;28;20488;-68
2021/05/25 08:21:46;;;;;;;8.55;4.00;;;18.60;89.60;;;;;;5052324;28;20029;-67
2021/05/25 08:24:13;;;;;;;11.23;4.47;;;18.60;89.60;;;;;;5064054;28;20033;-69
2021/05/25 08:26:40;;;;;;;7.40;3.97;;;18.60;89.70;;;;;;5048773;28;20016;-68
2021/05/25 08:29:06;;;;;;;8.10;4.75;;;18.60;89.70;;;;;;5061362;28;20020;-68
2021/05/25 08:31:33;;;;;;;6.95;4.00;;;18.60;89.70;;;;;;5066712;28;20049;-67
2021/05/25 08:34:01;;;;;;;9.68;3.25;;;18.60;89.80;;;;;;5065114;28;20017;-68
2021/05/25 08:36:31;;;;;;;10.07;3.08;;;18.60;89.80;;;;;;5066767;28;20153;-68
2021/05/25 08:38:57;;;;;;;7.60;2.92;;;18.60;89.80;;;;;;5067213;28;20017;-67
2021/05/25 08:41:24;;;;;;;7.40;3.08;;;18.60;89.80;;;;;;5064665;28;20013;-68
2021/05/25 08:43:50;;;;;;;5.85;2.80;;;18.60;89.80;;;;;;5063395;28;20506;-69
2021/05/25 08:46:17;;;;;;;3.92;2.80;;;18.60;89.80;;;;;;5066611;28;20103;-68
2021/05/25 08:48:44;;;;;;;8.35;2.72;;;18.60;89.90;;;;;;5051563;28;20025;-69
2021/05/25 08:51:11;;;;;;;5.57;2.72;;;18.60;89.90;;;;;;5067516;28;20032;-68
2021/05/25 08:53:37;;;;;;;7.15;2.92;;;18.60;90.00;;;;;;5068325;28;20017;-69
2021/05/25 08:56:06;;;;;;;5.88;3.00;;;18.70;90.00;;;;;;5069340;28;20023;-68
2021/05/25 08:58:33;;;;;;;4.32;2.47;;;18.70;90.00;;;;;;5066904;28;20021;-70
2021/05/25 09:00:59;;;;;;;8.57;2.72;;;18.70;90.00;;;;;;5068346;28;20111;-71
2021/05/25 09:03:26;;;;;;;9.80;3.20;;;18.70;90.00;;;;;;5068891;28;20024;-68
2021/05/25 09:05:57;;;;;;;6.38;3.58;;;18.70;89.90;;;;;;5069605;28;20028;-68
2021/05/25 09:08:24;;;;;;;6.30;2.75;;;18.80;89.90;;;;;;5069535;28;20037;-69
2021/05/25 09:10:51;;;;;;;7.03;2.90;;;18.80;90.20;;;;;;5067293;28;20035;-68
2021/05/25 09:13:23;;;;;;;6.40;2.15;;;18.80;89.80;;;;;;5067295;28;20025;-69
2021/05/25 09:15:54;;;;;;;4.68;2.95;;;18.80;89.70;;;;;;5065858;28;20013;-69
2021/05/25 09:18:27;;;;;;;6.63;3.15;;;18.80;89.70;;;;;;5067756;28;20021;-69
2021/05/25 09:20:56;;;;;;;5.18;2.75;;;18.80;89.60;;;;;;5066180;28;20024;-71
2021/05/25 09:23:32;;;;;;;6.35;3.08;;;18.80;89.60;;;;;;5071315;28;20517;-70
2021/05/25 09:28:27;;;;;;;7.13;2.60;;;18.80;89.80;;;;;;5068807;28;20029;-72
2021/05/25 09:30:54;;;;;;;6.72;2.50;;;18.80;89.70;;;;;;5069069;28;20056;-71
2021/05/25 09:33:21;;;;;;;8.90;3.45;;;18.80;89.70;;;;;;5068401;28;20023;-72
2021/05/25 09:35:49;;;;;;;4.88;2.97;;;18.80;89.70;;;;;;5068149;28;20017;-70
2021/05/25 09:38:26;;;;;;;8.63;3.65;;;18.80;89.70;;;;;;5067023;28;20471;-72
2021/05/25 09:40:52;;;;;;;5.22;2.53;;;18.80;89.70;;;;;;5066958;28;20106;-70
2021/05/25 09:43:23;;;;;;;5.18;2.78;;;18.80;89.60;;;;;;5068402;28;20029;-70
2021/05/25 09:45:55;;;;;;;5.70;2.90;;;18.90;89.60;;;;;;5068758;28;20011;-71
2021/05/25 09:48:23;;;;;;;18.60;4.60;;;18.80;89.50;;;;;;5067473;28;20024;-71
2021/05/25 09:50:50;;;;;;;7.65;3.70;;;18.80;89.40;;;;;;5066403;28;20047;-70
2021/05/25 09:53:28;;;;;;;9.55;3.60;;;18.90;89.40;;;;;;5068118;28;20044;-70
2021/05/25 09:56:00;;;;;;;3.83;2.80;;;18.90;89.30;;;;;;5069202;28;20490;-71
2021/05/25 09:58:32;;;;;;;6.90;3.20;;;18.90;89.20;;;;;;5068456;28;20016;-71
2021/05/25 10:01:03;;;;;;;6.72;3.25;;;18.90;89.20;;;;;;5067341;28;20145;-69
2021/05/25 10:03:32;;;;;;;4.18;2.25;;;18.90;89.10;;;;;;5064319;28;20043;-71
2021/05/25 10:06:02;;;;;;;7.90;2.83;;;18.90;89.00;;;;;;5068760;28;20106;-70
2021/05/25 10:08:29;;;;;;;4.90;2.42;;;18.90;89.00;;;;;;5066743;28;20022;-71
2021/05/25 10:10:59;;;;;;;6.32;2.55;;;18.90;89.00;;;;;;5065309;28;20024;-71
2021/05/25 10:13:27;;;;;;;8.73;2.30;;;19.00;89.00;;;;;;5069106;28;20508;-70
2021/05/25 10:15:54;;;;;;;9.02;2.67;;;19.00;88.90;;;;;;5066780;28;20024;-68
2021/05/25 10:18:48;;;;;;;6.78;2.67;;;19.00;88.80;;;;;;5066476;28;20016;-70
2021/05/25 10:21:15;;;;;;;13.10;2.80;;;19.00;88.70;;;;;;5067916;28;20020;-69
2021/05/25 10:23:43;;;;;;;4.55;2.30;;;19.10;88.80;;;;;;5067279;28;20020;-69
2021/05/25 10:26:14;;;;;;;3.80;2.33;;;19.10;88.60;;;;;;5064557;28;20024;-70
2021/05/25 10:28:51;;;;;;;10.75;3.63;;;19.10;88.50;;;;;;5062570;28;20020;-69
2021/05/25 10:31:35;;;;;;;10.13;2.70;;;19.10;88.30;;;;;;5066561;28;20021;-70
2021/05/25 10:34:22;;;;;;;9.50;3.10;;;19.10;88.20;;;;;;5066461;28;20056;-69
2021/05/25 10:36:54;;;;;;;8.38;2.63;;;19.10;87.80;;;;;;5065782;28;20024;-68
2021/05/25 10:39:30;;;;;;;8.10;3.17;;;19.10;87.70;;;;;;5064774;28;20476;-69
2021/05/25 10:42:18;;;;;;;9.02;3.10;;;19.20;87.60;;;;;;5067381;28;20016;-70
2021/05/25 10:44:50;;;;;;;3.72;2.60;;;19.10;87.40;;;;;;5064583;28;20554;-71
2021/05/25 10:47:26;;;;;;;7.53;2.38;;;19.20;88.00;;;;;;5064627;28;20016;-71
2021/05/25 10:50:12;;;;;;;6.85;2.88;;;19.20;87.20;;;;;;5067991;28;20024;-70
2021/05/25 10:52:39;;;;;;;6.10;2.75;;;19.20;87.10;;;;;;5067049;28;20020;-68
2021/05/25 10:55:06;;;;;;;6.25;3.00;;;19.20;87.10;;;;;;5064194;28;20020;-67
2021/05/25 10:57:49;;;;;;;4.63;2.80;;;19.30;87.10;;;;;;5065159;28;20059;-68
2021/05/25 11:00:20;;;;;;;11.95;2.95;;;19.30;87.00;;;;;;5065727;28;20119;-70
2021/05/25 11:02:47;;;;;;;7.47;2.75;;;19.30;86.80;;;;;;5067973;28;20070;-70
2021/05/25 11:05:36;;;;;;;6.53;2.80;;;19.40;86.80;;;;;;5063115;28;20099;-70
2021/05/25 11:08:12;;;;;;;13.68;4.20;;;19.50;86.80;;;;;;5064862;28;20400;-68
2021/05/25 11:10:40;;;;;;;8.27;3.35;;;19.50;86.50;;;;;;5064029;28;20476;-70
2021/05/25 11:13:20;;;;;;;10.07;3.80;;;19.60;86.30;;;;;;5064624;28;20099;-68
2021/05/25 11:16:23;;;;;;;15.18;3.13;;;19.60;85.90;;;;;;5064694;28;20024;-70
2021/05/25 11:19:18;;;;;;;13.10;4.00;;;19.70;85.60;;;;;;5058360;28;20033;-69
2021/05/25 11:27:00;;;;;;;8.75;3.05;;;20.00;84.50;;;;;;5067849;28;20028;-68
2021/05/25 11:29:30;;;;;;;7.90;3.25;;;20.10;84.30;;;;;;5066441;28;20041;-70
2021/05/25 11:31:59;;;;;;;13.13;4.30;;;20.20;83.90;;;;;;5066008;28;20040;-70
2021/05/25 11:34:27;;;;;;;16.00;4.25;;;20.20;83.30;;;;;;5064023;28;20062;-71
2021/05/25 11:36:59;;;;;;;7.55;2.55;;;20.30;83.00;;;;;;5065535;28;20021;-70
2021/05/25 11:39:28;;;;;;;11.45;3.45;;;20.30;82.70;;;;;;5065983;28;20491;-69
2021/05/25 11:41:56;;;;;;;11.48;3.78;;;20.40;82.40;;;;;;5065746;28;20021;-70
2021/05/25 11:44:34;;;;;;;8.88;3.08;;;20.50;82.10;;;;;;5047632;28;20371;-68
2021/05/25 11:47:05;;;;;;;12.98;3.50;;;20.50;81.70;;;;;;5063425;28;20044;-69
2021/05/25 11:49:34;;;;;;;10.80;2.75;;;20.60;81.60;;;;;;5067834;28;20017;-68
2021/05/25 11:52:26;;;;;;;12.50;3.28;;;20.60;81.30;;;;;;5066237;28;20499;-71
2021/05/25 11:55:00;;;;;;;11.52;3.67;;;20.60;81.10;;;;;;5065206;28;20100;-69
2021/05/25 11:57:39;;;;;;;12.88;3.45;;;20.70;80.80;;;;;;5066231;28;20016;-68
2021/05/25 12:00:05;;;;;;;7.97;2.80;;;20.70;80.50;;;;;;5064649;28;20088;-69
2021/05/25 12:02:33;;;;;;;12.88;4.07;;;20.70;80.20;;;;;;5066002;28;20017;-69
2021/05/25 12:05:18;;;;;;;11.68;4.10;;;20.70;80.00;;;;;;5063458;28;20503;-70
2021/05/25 12:07:47;;;;;;;11.63;2.92;;;20.80;80.00;;;;;;5065150;28;20034;-70
2021/05/25 12:10:17;;;;;;;10.25;2.72;;;20.80;79.90;;;;;;5063519;28;20019;-71
2021/05/25 12:12:44;;;;;;;13.48;3.83;;;20.80;79.70;;;;;;5066572;28;20467;-69
2021/05/25 12:15:16;;;;;;;13.68;3.10;;;20.90;79.60;;;;;;5065016;28;20020;-70
2021/05/25 12:17:55;;;;;;;7.15;2.88;;;20.90;79.20;;;;;;5062561;28;20017;-69
2021/05/25 12:20:23;;;;;;;8.57;3.20;;;20.90;79.00;;;;;;5069396;28;20016;-68
2021/05/25 12:22:54;;;;;;;13.40;4.95;;;20.90;78.70;;;;;;5067327;28;20021;-71
2021/05/25 12:25:25;;;;;;;12.70;3.45;;;21.00;78.50;;;;;;5070792;28;20036;-69
2021/05/25 12:28:12;;;;;;;11.13;3.17;;;21.00;78.50;;;;;;5068910;28;20027;-70
2021/05/25 12:30:44;;;;;;;12.75;3.13;;;21.00;78.10;;;;;;5067517;28;20036;-70
2021/05/25 12:33:25;;;;;;;11.45;3.72;;;21.00;77.90;;;;;;5068169;28;20115;-69
2021/05/25 12:35:52;;;;;;;12.57;3.03;;;21.00;77.50;;;;;;5067627;28;20023;-69
2021/05/25 12:38:20;;;;;;;13.88;4.22;;;21.00;77.50;;;;;;5071099;28;20020;-71
2021/05/25 12:40:58;;;;;;;9.05;2.55;;;21.00;77.50;;;;;;5070205;28;20017;-69
2021/05/25 12:43:27;;;;;;;11.43;3.35;;;20.90;77.60;;;;;;5067852;28;20012;-71
2021/05/25 12:45:54;;;;;;;15.35;3.60;;;20.90;77.50;;;;;;5071548;28;20024;-70
2021/05/25 12:48:40;;;;;;;17.30;3.33;;;20.90;77.60;;;;;;5061969;28;20025;-68
2021/05/25 12:51:08;;;;;;;10.48;3.60;;;20.90;77.60;;;;;;5067011;28;20023;-71
2021/05/25 12:53:59;;;;;;;14.63;3.53;;;20.90;77.50;;;;;;5063952;28;20030;-69
2021/05/25 12:56:26;;;;;;;12.75;3.53;;;20.90;77.30;;;;;;5066117;28;20105;-68
2021/05/25 12:58:55;;;;;;;12.52;3.25;;;20.90;77.20;;;;;;5068620;28;20032;-71
2021/05/25 13:01:42;;;;;;;11.35;2.67;;;20.80;76.90;;;;;;5065308;28;20540;-71
2021/05/25 13:04:08;;;;;;;8.43;2.25;;;20.90;77.00;;;;;;5068196;28;20024;-71